sensor_id;sensor_type;location;lat;lon;timestamp;pressure;altitude;pressure_sealevel;temperature;humidity
23059;BME280;30585;51.502;7.218;2024-03-23T00:53:56;99919.72;;;6.74;90.42
23059;BME280;30585;51.502;7.218;2024-03-23T00:56:21;99919.91;;;6.71;89.82
23059;BME280;30585;51.502;7.218;2024-03-23T00:58:49;99912.72;;;6.71;89.77
23059;BME280;30585;51.502;7.218;2024-03-23T01:01:15;99857.94;;;6.36;89.91
23059;BME280;30585;51.502;7.218;2024-03-23T01:03:42;99910.97;;;6.58;90.95
23059;BME280;30585;51.502;7.218;2024-03-23T01:06:08;99895.44;;;6.63;90.38
23059;BME280;30585;51.502;7.218;2024-03-23T01:08:35;99904.78;;;6.70;90.76
23059;BME280;30585;51.502;7.218;2024-03-23T01:11:02;99901.75;;;6.62;89.62
23059;BME280;30585;51.502;7.218;2024-03-23T01:13:29;99873.06;;;6.37;89.67
23059;BME280;30585;51.502;7.218;2024-03-23T01:15:56;99901.97;;;6.59;90.54
23059;BME280;30585;51.502;7.218;2024-03-23T01:18:23;99880.44;;;6.33;90.51
23059;BME280;30585;51.502;7.218;2024-03-23T01:20:49;99888.75;;;6.56;90.83
23059;BME280;30585;51.502;7.218;2024-03-23T01:23:16;99895.72;;;6.45;90.70
23059;BME280;30585;51.502;7.218;2024-03-23T01:25:42;99888.44;;;6.47;89.96
23059;BME280;30585;51.502;7.218;2024-03-23T01:28:10;99896.69;;;6.44;89.27
23059;BME280;30585;51.502;7.218;2024-03-23T01:30:36;99897.88;;;6.53;90.12
23059;BME280;30585;51.502;7.218;2024-03-23T01:33:03;99864.63;;;6.56;90.89
23059;BME280;30585;51.502;7.218;2024-03-23T01:35:29;99876.41;;;6.40;88.29
23059;BME280;30585;51.502;7.218;2024-03-23T01:37:56;99869.31;;;6.39;88.73
23059;BME280;30585;51.502;7.218;2024-03-23T01:40:21;99862.13;;;6.27;89.75
23059;BME280;30585;51.502;7.218;2024-03-23T01:42:55;99872.00;;;6.39;89.61
23059;BME280;30585;51.502;7.218;2024-03-23T01:45:22;99870.47;;;6.35;89.99
23059;BME280;30585;51.502;7.218;2024-03-23T01:47:50;99878.78;;;6.18;89.92
23059;BME280;30585;51.502;7.218;2024-03-23T01:50:16;99876.78;;;6.22;90.80
23059;BME280;30585;51.502;7.218;2024-03-23T01:52:43;99876.28;;;6.29;91.00
23059;BME280;30585;51.502;7.218;2024-03-23T01:55:10;99874.00;;;6.23;90.63
23059;BME280;30585;51.502;7.218;2024-03-23T01:57:37;99876.31;;;6.15;90.86
23059;BME280;30585;51.502;7.218;2024-03-23T02:00:03;99878.50;;;6.23;89.93
23059;BME280;30585;51.502;7.218;2024-03-23T02:02:31;99874.00;;;6.23;90.35
23059;BME280;30585;51.502;7.218;2024-03-23T02:04:57;99856.81;;;6.13;90.16
23059;BME280;30585;51.502;7.218;2024-03-23T02:07:24;99849.13;;;6.21;89.42
23059;BME280;30585;51.502;7.218;2024-03-23T02:09:50;99839.75;;;6.01;89.54
23059;BME280;30585;51.502;7.218;2024-03-23T02:12:17;99831.91;;;5.98;90.30
23059;BME280;30585;51.502;7.218;2024-03-23T02:14:43;99839.44;;;6.06;90.51
23059;BME280;30585;51.502;7.218;2024-03-23T02:17:10;99834.78;;;5.95;89.26
23059;BME280;30585;51.502;7.218;2024-03-23T02:19:38;99826.34;;;6.01;90.12
23059;BME280;30585;51.502;7.218;2024-03-23T02:22:04;99828.44;;;6.23;90.44
23059;BME280;30585;51.502;7.218;2024-03-23T02:24:32;99820.00;;;6.29;90.09
23059;BME280;30585;51.502;7.218;2024-03-23T02:26:59;99815.41;;;6.31;89.98
23059;BME280;30585;51.502;7.218;2024-03-23T02:29:25;99818.78;;;6.08;89.42
23059;BME280;30585;51.502;7.218;2024-03-23T02:31:52;99826.47;;;6.12;90.86
23059;BME280;30585;51.502;7.218;2024-03-23T02:34:18;99834.19;;;6.04;90.15
23059;BME280;30585;51.502;7.218;2024-03-23T02:36:44;99829.13;;;6.00;91.24
23059;BME280;30585;51.502;7.218;2024-03-23T02:39:10;99823.50;;;5.90;91.41
23059;BME280;30585;51.502;7.218;2024-03-23T02:41:38;99827.13;;;6.03;90.69
23059;BME280;30585;51.502;7.218;2024-03-23T02:44:04;99830.44;;;6.07;90.73
23059;BME280;30585;51.502;7.218;2024-03-23T02:46:32;99824.34;;;6.17;90.72
23059;BME280;30585;51.502;7.218;2024-03-23T02:48:57;99821.78;;;6.16;91.25
23059;BME280;30585;51.502;7.218;2024-03-23T02:51:24;99820.94;;;5.89;90.11
23059;BME280;30585;51.502;7.218;2024-03-23T02:53:50;99810.13;;;5.90;91.05
23059;BME280;30585;51.502;7.218;2024-03-23T02:56:17;99804.22;;;5.85;91.25
23059;BME280;30585;51.502;7.218;2024-03-23T02:58:44;99811.84;;;5.64;91.07
23059;BME280;30585;51.502;7.218;2024-03-23T03:01:10;99818.56;;;5.84;91.43
23059;BME280;30585;51.502;7.218;2024-03-23T03:03:36;99809.84;;;5.80;90.70
23059;BME280;30585;51.502;7.218;2024-03-23T03:06:03;99816.19;;;5.65;91.95
23059;BME280;30585;51.502;7.218;2024-03-23T03:08:29;99819.63;;;5.67;89.37
23059;BME280;30585;51.502;7.218;2024-03-23T03:10:56;99834.50;;;5.59;90.16
23059;BME280;30585;51.502;7.218;2024-03-23T03:13:22;99830.16;;;5.70;90.33
23059;BME280;30585;51.502;7.218;2024-03-23T03:15:50;99829.09;;;5.73;89.88
23059;BME280;30585;51.502;7.218;2024-03-23T03:18:16;99818.75;;;5.81;90.33
23059;BME280;30585;51.502;7.218;2024-03-23T03:20:42;99814.66;;;5.75;90.86
23059;BME280;30585;51.502;7.218;2024-03-23T03:23:09;99816.44;;;5.62;91.21
23059;BME280;30585;51.502;7.218;2024-03-23T03:25:36;99811.84;;;5.64;90.73
23059;BME280;30585;51.502;7.218;2024-03-23T03:28:03;99824.00;;;5.82;91.04
23059;BME280;30585;51.502;7.218;2024-03-23T03:30:30;99821.34;;;5.82;91.06
23059;BME280;30585;51.502;7.218;2024-03-23T03:32:57;99812.47;;;5.68;91.10
23059;BME280;30585;51.502;7.218;2024-03-23T03:35:24;99814.25;;;5.81;91.37
23059;BME280;30585;51.502;7.218;2024-03-23T03:37:50;99798.19;;;5.81;91.54
23059;BME280;30585;51.502;7.218;2024-03-23T03:40:17;99801.72;;;5.82;90.73
23059;BME280;30585;51.502;7.218;2024-03-23T03:42:42;99801.81;;;5.80;91.07
23059;BME280;30585;51.502;7.218;2024-03-23T03:45:10;99793.59;;;5.57;90.88
23059;BME280;30585;51.502;7.218;2024-03-23T03:47:35;99810.84;;;5.65;91.15
23059;BME280;30585;51.502;7.218;2024-03-23T03:50:04;99814.34;;;5.53;91.02
23059;BME280;30585;51.502;7.218;2024-03-23T03:52:30;99821.88;;;5.46;91.70
23059;BME280;30585;51.502;7.218;2024-03-23T03:55:01;99819.63;;;5.40;91.45
23059;BME280;30585;51.502;7.218;2024-03-23T03:57:28;99808.97;;;5.53;91.50
23059;BME280;30585;51.502;7.218;2024-03-23T03:59:54;99804.97;;;5.60;91.51
23059;BME280;30585;51.502;7.218;2024-03-23T04:02:20;99796.00;;;5.74;91.12
23059;BME280;30585;51.502;7.218;2024-03-23T04:04:47;99798.75;;;5.60;89.86
23059;BME280;30585;51.502;7.218;2024-03-23T04:07:14;99802.19;;;5.62;90.05
23059;BME280;30585;51.502;7.218;2024-03-23T04:09:43;99797.09;;;5.30;90.60
23059;BME280;30585;51.502;7.218;2024-03-23T04:12:09;99807.13;;;5.41;91.24
23059;BME280;30585;51.502;7.218;2024-03-23T04:14:35;99801.06;;;5.52;91.29
23059;BME280;30585;51.502;7.218;2024-03-23T04:17:01;99806.78;;;5.45;90.62
23059;BME280;30585;51.502;7.218;2024-03-23T04:19:28;99803.78;;;5.37;90.53
23059;BME280;30585;51.502;7.218;2024-03-23T04:21:54;99797.75;;;5.34;90.99
23059;BME280;30585;51.502;7.218;2024-03-23T04:24:22;99799.88;;;5.14;91.06
23059;BME280;30585;51.502;7.218;2024-03-23T04:26:48;99797.75;;;5.34;91.38
23059;BME280;30585;51.502;7.218;2024-03-23T04:29:15;99801.00;;;5.39;90.93
23059;BME280;30585;51.502;7.218;2024-03-23T04:31:40;99803.69;;;5.39;91.32
23059;BME280;30585;51.502;7.218;2024-03-23T04:34:07;99794.03;;;5.22;90.86
23059;BME280;30585;51.502;7.218;2024-03-23T04:36:33;99783.19;;;5.11;90.79
23059;BME280;30585;51.502;7.218;2024-03-23T04:39:00;99793.41;;;5.19;91.27
23059;BME280;30585;51.502;7.218;2024-03-23T04:41:29;99780.78;;;5.06;91.75
23059;BME280;30585;51.502;7.218;2024-03-23T04:43:56;99776.78;;;5.13;91.57
23059;BME280;30585;51.502;7.218;2024-03-23T04:46:23;99779.69;;;5.23;91.78
23059;BME280;30585;51.502;7.218;2024-03-23T04:48:49;99786.88;;;5.23;91.69
23059;BME280;30585;51.502;7.218;2024-03-23T04:51:20;99785.94;;;5.09;91.64
23059;BME280;30585;51.502;7.218;2024-03-23T04:53:48;99787.28;;;5.17;91.88
23059;BME280;30585;51.502;7.218;2024-03-23T04:56:14;99780.41;;;5.12;91.31
23059;BME280;30585;51.502;7.218;2024-03-23T04:58:42;99779.84;;;5.07;91.70
23059;BME280;30585;51.502;7.218;2024-03-23T05:01:10;99790.50;;;5.22;91.63
23059;BME280;30585;51.502;7.218;2024-03-23T05:03:35;99794.88;;;5.23;91.05
23059;BME280;30585;51.502;7.218;2024-03-23T05:06:03;99794.03;;;5.22;90.35
23059;BME280;30585;51.502;7.218;2024-03-23T05:08:28;99792.72;;;5.01;91.29
23059;BME280;30585;51.502;7.218;2024-03-23T05:10:55;99794.44;;;5.16;91.13
23059;BME280;30585;51.502;7.218;2024-03-23T05:13:21;99798.56;;;5.07;90.33
23059;BME280;30585;51.502;7.218;2024-03-23T05:15:52;99789.63;;;5.21;90.89
23059;BME280;30585;51.502;7.218;2024-03-23T05:18:18;99791.25;;;5.24;91.08
23059;BME280;30585;51.502;7.218;2024-03-23T05:20:45;99796.72;;;5.22;90.53
23059;BME280;30585;51.502;7.218;2024-03-23T05:23:11;99789.19;;;5.14;91.13
23059;BME280;30585;51.502;7.218;2024-03-23T05:25:37;99788.91;;;5.19;91.85
23059;BME280;30585;51.502;7.218;2024-03-23T05:28:04;99791.38;;;5.08;91.10
23059;BME280;30585;51.502;7.218;2024-03-23T05:30:30;99791.75;;;5.02;92.00
23059;BME280;30585;51.502;7.218;2024-03-23T05:32:58;99801.69;;;5.00;92.45
23059;BME280;30585;51.502;7.218;2024-03-23T05:35:24;99799.97;;;5.13;92.86
23059;BME280;30585;51.502;7.218;2024-03-23T05:37:50;99811.16;;;5.20;92.34
23059;BME280;30585;51.502;7.218;2024-03-23T05:40:17;99809.22;;;5.22;91.56
23059;BME280;30585;51.502;7.218;2024-03-23T05:42:43;99799.94;;;5.27;92.54
23059;BME280;30585;51.502;7.218;2024-03-23T05:45:09;99804.25;;;5.30;91.47
23059;BME280;30585;51.502;7.218;2024-03-23T05:47:36;99802.47;;;5.16;92.00
23059;BME280;30585;51.502;7.218;2024-03-23T05:50:05;99794.81;;;5.10;92.57
23059;BME280;30585;51.502;7.218;2024-03-23T05:52:31;99802.28;;;5.19;92.55
23059;BME280;30585;51.502;7.218;2024-03-23T05:54:58;99803.72;;;5.10;93.20
23059;BME280;30585;51.502;7.218;2024-03-23T05:57:24;99803.22;;;5.18;92.77
23059;BME280;30585;51.502;7.218;2024-03-23T05:59:51;99800.91;;;5.26;92.76
23059;BME280;30585;51.502;7.218;2024-03-23T06:02:17;99801.72;;;5.14;93.44
23059;BME280;30585;51.502;7.218;2024-03-23T06:04:45;99807.50;;;5.21;93.09
23059;BME280;30585;51.502;7.218;2024-03-23T06:07:12;99805.41;;;5.26;93.48
23059;BME280;30585;51.502;7.218;2024-03-23T06:09:39;99794.72;;;4.97;93.77
23059;BME280;30585;51.502;7.218;2024-03-23T06:12:05;99804.47;;;5.12;93.67
23059;BME280;30585;51.502;7.218;2024-03-23T06:14:32;99808.00;;;5.13;93.39
23059;BME280;30585;51.502;7.218;2024-03-23T06:16:58;99818.00;;;5.24;93.53
23059;BME280;30585;51.502;7.218;2024-03-23T06:19:25;99814.47;;;5.23;93.63
23059;BME280;30585;51.502;7.218;2024-03-23T06:21:53;99811.41;;;5.29;93.51
23059;BME280;30585;51.502;7.218;2024-03-23T06:24:21;99817.44;;;5.33;92.92
23059;BME280;30585;51.502;7.218;2024-03-23T06:26:49;99813.63;;;5.23;93.55
23059;BME280;30585;51.502;7.218;2024-03-23T06:29:16;99816.09;;;5.26;93.37
23059;BME280;30585;51.502;7.218;2024-03-23T06:31:42;99812.66;;;5.24;93.68
23059;BME280;30585;51.502;7.218;2024-03-23T06:34:08;99817.63;;;5.30;93.12
23059;BME280;30585;51.502;7.218;2024-03-23T06:36:34;99821.84;;;5.34;92.72
23059;BME280;30585;51.502;7.218;2024-03-23T06:39:03;99797.41;;;5.11;93.07
23059;BME280;30585;51.502;7.218;2024-03-23T06:41:31;99830.81;;;5.33;94.13
23059;BME280;30585;51.502;7.218;2024-03-23T06:43:58;99829.94;;;5.32;93.32
23059;BME280;30585;51.502;7.218;2024-03-23T06:46:23;99813.81;;;5.34;92.78
23059;BME280;30585;51.502;7.218;2024-03-23T06:48:50;99830.25;;;5.42;93.07
23059;BME280;30585;51.502;7.218;2024-03-23T06:51:16;99826.38;;;5.46;93.34
23059;BME280;30585;51.502;7.218;2024-03-23T06:53:43;99821.59;;;5.51;93.00
23059;BME280;30585;51.502;7.218;2024-03-23T06:56:08;99824.88;;;5.42;92.35
23059;BME280;30585;51.502;7.218;2024-03-23T06:58:36;99823.72;;;5.46;92.43
23059;BME280;30585;51.502;7.218;2024-03-23T07:01:03;99824.13;;;5.40;91.94
23059;BME280;30585;51.502;7.218;2024-03-23T07:03:29;99832.09;;;5.54;91.52
23059;BME280;30585;51.502;7.218;2024-03-23T07:05:57;99834.59;;;5.57;91.77
23059;BME280;30585;51.502;7.218;2024-03-23T07:08:24;99840.19;;;5.67;92.05
23059;BME280;30585;51.502;7.218;2024-03-23T07:10:50;99839.50;;;5.77;91.52
23059;BME280;30585;51.502;7.218;2024-03-23T07:13:17;99836.50;;;5.55;90.85
23059;BME280;30585;51.502;7.218;2024-03-23T07:15:51;99829.47;;;5.67;91.75
23059;BME280;30585;51.502;7.218;2024-03-23T07:18:18;99824.50;;;5.75;91.40
23059;BME280;30585;51.502;7.218;2024-03-23T07:20:52;99828.41;;;5.83;92.79
23059;BME280;30585;51.502;7.218;2024-03-23T07:23:19;99828.19;;;6.13;90.63
23059;BME280;30585;51.502;7.218;2024-03-23T07:25:44;99831.22;;;6.22;90.41
23059;BME280;30585;51.502;7.218;2024-03-23T07:28:11;99842.41;;;6.28;89.79
23059;BME280;30585;51.502;7.218;2024-03-23T07:30:37;99834.28;;;6.42;89.53
23059;BME280;30585;51.502;7.218;2024-03-23T07:33:05;99836.97;;;6.42;89.00
23059;BME280;30585;51.502;7.218;2024-03-23T07:35:31;99825.03;;;6.34;88.70
23059;BME280;30585;51.502;7.218;2024-03-23T07:37:58;99822.28;;;6.61;89.55
23059;BME280;30585;51.502;7.218;2024-03-23T07:40:31;99832.69;;;6.78;88.51
23059;BME280;30585;51.502;7.218;2024-03-23T07:42:57;99834.97;;;6.97;88.78
23059;BME280;30585;51.502;7.218;2024-03-23T07:45:23;99831.53;;;6.95;87.93
23059;BME280;30585;51.502;7.218;2024-03-23T07:47:50;99828.66;;;6.98;87.22
23059;BME280;30585;51.502;7.218;2024-03-23T07:50:17;99837.41;;;7.12;86.58
23059;BME280;30585;51.502;7.218;2024-03-23T07:52:44;99837.84;;;7.19;86.38
23059;BME280;30585;51.502;7.218;2024-03-23T07:55:10;99835.06;;;7.08;85.29
23059;BME280;30585;51.502;7.218;2024-03-23T07:57:37;99825.97;;;6.98;86.04
23059;BME280;30585;51.502;7.218;2024-03-23T08:00:03;99839.44;;;7.34;85.85
23059;BME280;30585;51.502;7.218;2024-03-23T08:02:31;99847.13;;;7.51;85.76
23059;BME280;30585;51.502;7.218;2024-03-23T08:04:57;99838.53;;;7.46;85.86
23059;BME280;30585;51.502;7.218;2024-03-23T08:07:25;99841.41;;;7.56;84.94
23059;BME280;30585;51.502;7.218;2024-03-23T08:09:51;99849.41;;;7.45;83.25
23059;BME280;30585;51.502;7.218;2024-03-23T08:12:18;99847.75;;;7.55;84.35
23059;BME280;30585;51.502;7.218;2024-03-23T08:14:44;99845.56;;;7.36;84.52
23059;BME280;30585;51.502;7.218;2024-03-23T08:17:11;99846.19;;;7.40;84.20
23059;BME280;30585;51.502;7.218;2024-03-23T08:19:37;99843.56;;;7.51;84.57
23059;BME280;30585;51.502;7.218;2024-03-23T08:22:04;99841.84;;;7.50;84.70
23059;BME280;30585;51.502;7.218;2024-03-23T08:24:31;99843.03;;;7.59;84.28
23059;BME280;30585;51.502;7.218;2024-03-23T08:26:58;99848.72;;;7.67;83.93
23059;BME280;30585;51.502;7.218;2024-03-23T08:29:23;99842.63;;;7.88;84.33
23059;BME280;30585;51.502;7.218;2024-03-23T08:31:50;99829.56;;;7.71;81.66
23059;BME280;30585;51.502;7.218;2024-03-23T08:34:16;99840.25;;;7.60;81.94
23059;BME280;30585;51.502;7.218;2024-03-23T08:36:43;99840.34;;;7.59;81.63
23059;BME280;30585;51.502;7.218;2024-03-23T08:39:09;99781.72;;;7.52;80.53
23059;BME280;30585;51.502;7.218;2024-03-23T08:41:37;99839.41;;;7.83;78.54
23059;BME280;30585;51.502;7.218;2024-03-23T08:44:03;99830.38;;;7.84;80.45
23059;BME280;30585;51.502;7.218;2024-03-23T08:46:30;99836.28;;;7.89;77.98
23059;BME280;30585;51.502;7.218;2024-03-23T08:48:56;99832.03;;;8.22;79.83
23059;BME280;30585;51.502;7.218;2024-03-23T08:51:23;99836.78;;;8.42;77.49
23059;BME280;30585;51.502;7.218;2024-03-23T08:53:49;99832.84;;;8.11;76.37
23059;BME280;30585;51.502;7.218;2024-03-23T08:56:15;99833.41;;;8.28;75.84
23059;BME280;30585;51.502;7.218;2024-03-23T08:58:44;99825.97;;;8.66;75.36
23059;BME280;30585;51.502;7.218;2024-03-23T09:01:10;99756.81;;;7.98;74.76
23059;BME280;30585;51.502;7.218;2024-03-23T09:03:38;99826.19;;;8.28;76.21
23059;BME280;30585;51.502;7.218;2024-03-23T09:06:06;99826.75;;;8.33;75.86
23059;BME280;30585;51.502;7.218;2024-03-23T09:08:33;99825.03;;;8.43;73.69
23059;BME280;30585;51.502;7.218;2024-03-23T09:11:03;99830.66;;;8.40;74.01
23059;BME280;30585;51.502;7.218;2024-03-23T09:13:32;99832.59;;;8.14;73.61
23059;BME280;30585;51.502;7.218;2024-03-23T09:15:59;99840.59;;;8.27;74.73
23059;BME280;30585;51.502;7.218;2024-03-23T09:18:26;99862.09;;;8.27;74.67
23059;BME280;30585;51.502;7.218;2024-03-23T09:20:51;99845.56;;;7.97;74.04
23059;BME280;30585;51.502;7.218;2024-03-23T09:23:20;99840.78;;;7.89;73.48
23059;BME280;30585;51.502;7.218;2024-03-23T09:25:46;99844.44;;;7.88;75.17
23059;BME280;30585;51.502;7.218;2024-03-23T09:28:12;99834.06;;;7.71;74.20
23059;BME280;30585;51.502;7.218;2024-03-23T09:30:38;99859.19;;;7.82;75.40
23059;BME280;30585;51.502;7.218;2024-03-23T09:33:09;99851.34;;;8.03;73.13
23059;BME280;30585;51.502;7.218;2024-03-23T09:35:37;99816.09;;;8.08;73.29
23059;BME280;30585;51.502;7.218;2024-03-23T09:38:04;99845.47;;;8.46;72.52
23059;BME280;30585;51.502;7.218;2024-03-23T09:40:29;99852.19;;;8.86;72.75
23059;BME280;30585;51.502;7.218;2024-03-23T09:42:57;99849.44;;;8.64;72.26
23059;BME280;30585;51.502;7.218;2024-03-23T09:45:27;99852.63;;;8.58;70.92
23059;BME280;30585;51.502;7.218;2024-03-23T09:47:54;99842.19;;;9.11;72.22
23059;BME280;30585;51.502;7.218;2024-03-23T09:50:21;99848.31;;;9.13;71.33
23059;BME280;30585;51.502;7.218;2024-03-23T09:52:48;99836.19;;;9.18;71.39
23059;BME280;30585;51.502;7.218;2024-03-23T09:55:15;99791.41;;;9.06;71.46
23059;BME280;30585;51.502;7.218;2024-03-23T09:57:42;99840.59;;;9.19;68.70
23059;BME280;30585;51.502;7.218;2024-03-23T10:00:08;99854.16;;;8.96;69.93
23059;BME280;30585;51.502;7.218;2024-03-23T10:02:37;99831.09;;;8.58;71.60
23059;BME280;30585;51.502;7.218;2024-03-23T10:05:04;99831.22;;;8.68;70.81
23059;BME280;30585;51.502;7.218;2024-03-23T10:07:32;99822.69;;;8.74;72.13
23059;BME280;30585;51.502;7.218;2024-03-23T10:10:10;99818.56;;;8.92;71.44
23059;BME280;30585;51.502;7.218;2024-03-23T10:12:44;99810.13;;;9.19;68.68
23059;BME280;30585;51.502;7.218;2024-03-23T10:15:18;99817.22;;;8.98;69.83
23059;BME280;30585;51.502;7.218;2024-03-23T10:17:44;99810.63;;;9.13;68.67
23059;BME280;30585;51.502;7.218;2024-03-23T10:20:11;99814.75;;;9.28;68.25
23059;BME280;30585;51.502;7.218;2024-03-23T10:22:39;99754.81;;;8.70;67.76
23059;BME280;30585;51.502;7.218;2024-03-23T10:25:10;99806.94;;;9.14;68.58
23059;BME280;30585;51.502;7.218;2024-03-23T10:27:36;99809.38;;;9.06;66.04
23059;BME280;30585;51.502;7.218;2024-03-23T10:30:10;99790.31;;;8.98;64.29
23059;BME280;30585;51.502;7.218;2024-03-23T10:32:37;99806.31;;;9.33;67.39
23059;BME280;30585;51.502;7.218;2024-03-23T10:35:15;99808.16;;;9.32;65.25
23059;BME280;30585;51.502;7.218;2024-03-23T10:37:42;99799.47;;;9.06;62.96
23059;BME280;30585;51.502;7.218;2024-03-23T10:40:11;99802.53;;;8.79;62.99
23059;BME280;30585;51.502;7.218;2024-03-23T10:42:38;99810.91;;;8.64;63.14
23059;BME280;30585;51.502;7.218;2024-03-23T10:45:05;99803.38;;;8.80;62.97
23059;BME280;30585;51.502;7.218;2024-03-23T10:47:31;99803.00;;;8.84;64.37
23059;BME280;30585;51.502;7.218;2024-03-23T10:49:58;99795.47;;;9.23;64.87
23059;BME280;30585;51.502;7.218;2024-03-23T10:52:24;99807.34;;;9.75;63.33
23059;BME280;30585;51.502;7.218;2024-03-23T10:54:52;99805.34;;;9.45;59.38
23059;BME280;30585;51.502;7.218;2024-03-23T10:57:21;99798.16;;;9.23;60.69
23059;BME280;30585;51.502;7.218;2024-03-23T10:59:49;99805.72;;;8.96;61.07
23059;BME280;30585;51.502;7.218;2024-03-23T11:02:19;99795.50;;;8.54;59.95
23059;BME280;30585;51.502;7.218;2024-03-23T11:04:46;99814.75;;;8.83;60.94
23059;BME280;30585;51.502;7.218;2024-03-23T11:07:30;99839.97;;;8.23;62.88
23059;BME280;30585;51.502;7.218;2024-03-23T11:09:59;99862.38;;;7.51;65.08
23059;BME280;30585;51.502;7.218;2024-03-23T11:12:27;99849.69;;;7.53;66.72
23059;BME280;30585;51.502;7.218;2024-03-23T11:14:58;99880.03;;;6.92;67.04
23059;BME280;30585;51.502;7.218;2024-03-23T11:17:26;99878.84;;;6.96;69.11
23059;BME280;30585;51.502;7.218;2024-03-23T11:19:53;99859.00;;;7.11;70.16
23059;BME280;30585;51.502;7.218;2024-03-23T11:22:40;99865.09;;;6.88;69.41
23059;BME280;30585;51.502;7.218;2024-03-23T11:25:16;99858.78;;;6.89;70.41
23059;BME280;30585;51.502;7.218;2024-03-23T11:27:43;99873.47;;;6.70;70.65
23059;BME280;30585;51.502;7.218;2024-03-23T11:30:14;99854.38;;;6.88;71.72
23059;BME280;30585;51.502;7.218;2024-03-23T11:32:41;99858.00;;;7.25;70.03
23059;BME280;30585;51.502;7.218;2024-03-23T11:35:09;99850.44;;;7.55;70.64
23059;BME280;30585;51.502;7.218;2024-03-23T11:37:36;99844.91;;;8.06;68.91
23059;BME280;30585;51.502;7.218;2024-03-23T11:40:26;99853.31;;;8.25;69.71
23059;BME280;30585;51.502;7.218;2024-03-23T11:42:55;99836.41;;;8.36;68.20
23059;BME280;30585;51.502;7.218;2024-03-23T11:45:22;99843.06;;;8.54;68.21
23059;BME280;30585;51.502;7.218;2024-03-23T11:47:48;99832.19;;;8.55;67.38
23059;BME280;30585;51.502;7.218;2024-03-23T11:50:20;99822.94;;;8.82;67.95
23059;BME280;30585;51.502;7.218;2024-03-23T11:52:46;99828.75;;;9.22;66.97
23059;BME280;30585;51.502;7.218;2024-03-23T11:55:13;99834.72;;;9.03;66.80
23059;BME280;30585;51.502;7.218;2024-03-23T11:57:40;99822.28;;;8.56;65.99
23059;BME280;30585;51.502;7.218;2024-03-23T12:00:20;99806.81;;;9.04;68.47
23059;BME280;30585;51.502;7.218;2024-03-23T12:02:46;99813.19;;;9.03;65.55
23059;BME280;30585;51.502;7.218;2024-03-23T12:05:17;99809.13;;;9.53;65.37
23059;BME280;30585;51.502;7.218;2024-03-23T12:07:43;99814.28;;;9.45;64.64
23059;BME280;30585;51.502;7.218;2024-03-23T12:10:09;99817.16;;;9.87;65.17
23059;BME280;30585;51.502;7.218;2024-03-23T12:12:35;99806.78;;;10.03;61.30
23059;BME280;30585;51.502;7.218;2024-03-23T12:15:05;99809.38;;;10.05;61.94
23059;BME280;30585;51.502;7.218;2024-03-23T12:17:32;99811.16;;;9.83;61.92
23059;BME280;30585;51.502;7.218;2024-03-23T12:20:00;99799.94;;;9.56;62.24
23059;BME280;30585;51.502;7.218;2024-03-23T12:22:26;99779.03;;;9.48;62.38
23059;BME280;30585;51.502;7.218;2024-03-23T12:24:55;99798.41;;;9.74;61.75
23059;BME280;30585;51.502;7.218;2024-03-23T12:27:21;99790.63;;;9.71;61.12
23059;BME280;30585;51.502;7.218;2024-03-23T12:29:48;99788.19;;;9.57;60.93
23059;BME280;30585;51.502;7.218;2024-03-23T12:32:15;99799.38;;;9.19;58.55
23059;BME280;30585;51.502;7.218;2024-03-23T12:34:42;99802.41;;;9.14;58.52
23059;BME280;30585;51.502;7.218;2024-03-23T12:37:08;99798.88;;;8.80;58.99
23059;BME280;30585;51.502;7.218;2024-03-23T12:39:35;99804.75;;;8.39;60.15
23059;BME280;30585;51.502;7.218;2024-03-23T12:42:02;99811.66;;;8.66;60.41
23059;BME280;30585;51.502;7.218;2024-03-23T12:44:29;99801.91;;;8.87;60.72
23059;BME280;30585;51.502;7.218;2024-03-23T12:46:55;99821.38;;;9.46;61.12
23059;BME280;30585;51.502;7.218;2024-03-23T12:49:23;99773.91;;;9.77;60.05
23059;BME280;30585;51.502;7.218;2024-03-23T12:51:53;99816.69;;;10.14;58.78
23059;BME280;30585;51.502;7.218;2024-03-23T12:54:21;99809.50;;;9.38;61.81
23059;BME280;30585;51.502;7.218;2024-03-23T12:56:47;99816.91;;;9.90;62.08
23059;BME280;30585;51.502;7.218;2024-03-23T12:59:14;99805.69;;;10.06;61.91
23059;BME280;30585;51.502;7.218;2024-03-23T13:01:40;99815.88;;;10.02;60.20
23059;BME280;30585;51.502;7.218;2024-03-23T13:04:06;99808.28;;;9.96;61.36
23059;BME280;30585;51.502;7.218;2024-03-23T13:06:33;99820.13;;;10.48;61.01
23059;BME280;30585;51.502;7.218;2024-03-23T13:09:00;99821.22;;;9.70;59.88
23059;BME280;30585;51.502;7.218;2024-03-23T13:11:27;99808.19;;;8.99;60.66
23059;BME280;30585;51.502;7.218;2024-03-23T13:13:53;99809.38;;;9.28;60.33
23059;BME280;30585;51.502;7.218;2024-03-23T13:16:20;99821.16;;;9.16;61.13
23059;BME280;30585;51.502;7.218;2024-03-23T13:18:46;99824.56;;;8.96;61.52
23059;BME280;30585;51.502;7.218;2024-03-23T13:21:12;99845.34;;;9.05;62.44
23059;BME280;30585;51.502;7.218;2024-03-23T13:23:40;99846.44;;;8.80;63.44
23059;BME280;30585;51.502;7.218;2024-03-23T13:26:08;99848.72;;;7.54;70.47
23059;BME280;30585;51.502;7.218;2024-03-23T13:28:35;99837.00;;;7.68;72.10
23059;BME280;30585;51.502;7.218;2024-03-23T13:31:01;99835.00;;;7.46;72.67
23059;BME280;30585;51.502;7.218;2024-03-23T13:33:29;99824.84;;;7.26;74.16
23059;BME280;30585;51.502;7.218;2024-03-23T13:35:55;99826.34;;;7.30;75.78
23059;BME280;30585;51.502;7.218;2024-03-23T13:38:22;99828.91;;;7.44;76.22
23059;BME280;30585;51.502;7.218;2024-03-23T13:40:51;99833.97;;;7.36;73.83
23059;BME280;30585;51.502;7.218;2024-03-23T13:43:18;99816.19;;;7.59;75.00
23059;BME280;30585;51.502;7.218;2024-03-23T13:45:44;99814.56;;;7.56;74.13
23059;BME280;30585;51.502;7.218;2024-03-23T13:48:11;99825.41;;;7.18;74.56
23059;BME280;30585;51.502;7.218;2024-03-23T13:50:37;99807.91;;;7.12;73.62
23059;BME280;30585;51.502;7.218;2024-03-23T13:53:04;99824.72;;;7.40;73.46
23059;BME280;30585;51.502;7.218;2024-03-23T13:55:30;99821.34;;;6.87;72.19
23059;BME280;30585;51.502;7.218;2024-03-23T13:57:58;99801.94;;;6.96;74.69
23059;BME280;30585;51.502;7.218;2024-03-23T14:00:24;99806.63;;;7.18;74.79
23059;BME280;30585;51.502;7.218;2024-03-23T14:02:51;99819.47;;;7.26;76.10